Terminal Aerodrome Forecast
Issued by NWS

Home | Current Version | Previous Version | Graphics & Text | Print | Product List | Glossary On
Versions: 1 2 3 4 5 6 7 8 9 10 11 12 13 14 15 16 17 18 19 20 21
000
FTUS43 KBIS 250820 AAA
TAFJMS
TAF AMD
KJMS 250820Z 2508/2606 27007KT P6SM FEW030
     FM250830 28012KT P6SM BKN020
     FM251500 28015G25KT P6SM SCT080
     FM260000 27008KT P6SM FEW250=

USA.gov is the U.S. government's official web portal to all federal, state and local government web resources and services.